Bir Moghrein Airport


Codes: GQPT/
Name: Bir Moghrein Airport
City: Bir Moghrein
Country: Mauritania
Elevation: 1206 ft.
Wikipedia:

Photos at Bir Moghrein Airport


   Photos courtesy of SpottingLog. You can add your own sightings and photos by signing up for a free trial today.



No photos found.

Weather at Bir Moghrein Airport


Time (UTC)DescriptionTempratureWindCloud coverageVisibilityPressureHumidity
23-May-2024 21:00Clear Sky27°C16 mph, N0%10000m1013hPa22%
24-May-2024 00:00Clear Sky22°C18 mph, N0%10000m1014hPa43%
24-May-2024 03:00Clear Sky16°C16 mph, N0%10000m1015hPa71%
24-May-2024 06:00Clear Sky14°C13 mph, N0%10000m1016hPa82%
24-May-2024 09:00Clear Sky19°C18 mph, N0%10000m1016hPa48%
24-May-2024 12:00Clear Sky27°C16 mph, N0%10000m1015hPa22%
24-May-2024 15:00Clear Sky31°C13 mph, N0%10000m1013hPa16%
24-May-2024 18:00Clear Sky30°C16 mph, N0%10000m1013hPa18%
24-May-2024 21:00Clear Sky25°C16 mph, N0%10000m1015hPa24%
25-May-2024 00:00Clear Sky19°C18 mph, N0%10000m1017hPa45%
25-May-2024 03:00Scattered Clouds16°C18 mph, N30%10000m1015hPa62%
25-May-2024 06:00Few Clouds15°C16 mph, N22%10000m1016hPa75%
25-May-2024 09:00Clear Sky20°C18 mph, N1%10000m1017hPa42%
25-May-2024 12:00Clear Sky28°C16 mph, N4%10000m1016hPa18%
25-May-2024 15:00Few Clouds32°C13 mph, N14%10000m1014hPa13%
25-May-2024 18:00Scattered Clouds31°C16 mph, N26%10000m1013hPa13%
25-May-2024 21:00Broken Clouds26°C16 mph, N62%10000m1016hPa24%
26-May-2024 00:00Broken Clouds20°C18 mph, N76%10000m1016hPa53%
26-May-2024 03:00Clear Sky17°C16 mph, N10%10000m1015hPa67%
26-May-2024 06:00Broken Clouds16°C16 mph, N56%10000m1016hPa70%
26-May-2024 09:00Overcast Clouds21°C18 mph, N88%10000m1017hPa46%
26-May-2024 12:00Overcast Clouds29°C18 mph, N90%10000m1016hPa26%
26-May-2024 15:00Overcast Clouds33°C16 mph, N99%10000m1014hPa17%
26-May-2024 18:00Overcast Clouds32°C18 mph, N99%10000m1013hPa18%
26-May-2024 21:00Overcast Clouds26°C20 mph, N100%10000m1016hPa33%
27-May-2024 00:00Overcast Clouds20°C18 mph, N100%10000m1016hPa48%
27-May-2024 03:00Few Clouds18°C16 mph, N22%10000m1015hPa62%
27-May-2024 06:00Scattered Clouds17°C16 mph, N31%10000m1016hPa72%
27-May-2024 09:00Scattered Clouds22°C18 mph, N40%10000m1017hPa50%
27-May-2024 12:00Scattered Clouds29°C18 mph, N41%10000m1015hPa28%
27-May-2024 15:00Overcast Clouds33°C18 mph, N96%10000m1013hPa19%
27-May-2024 18:00Overcast Clouds32°C18 mph, N95%10000m1013hPa21%
27-May-2024 21:00Overcast Clouds25°C20 mph, N85%10000m1015hPa38%
28-May-2024 00:00Overcast Clouds20°C18 mph, N93%10000m1016hPa57%
28-May-2024 03:00Broken Clouds18°C16 mph, N81%10000m1014hPa66%
28-May-2024 06:00Overcast Clouds17°C13 mph, N91%10000m1015hPa72%
28-May-2024 09:00Overcast Clouds21°C20 mph, N100%10000m1015hPa53%
28-May-2024 12:00Overcast Clouds28°C18 mph, N96%10000m1015hPa32%
28-May-2024 15:00Overcast Clouds32°C18 mph, NW100%10000m1012hPa24%
28-May-2024 18:00Overcast Clouds31°C18 mph, NW100%10000m1012hPa26%